sensor_id;sensor_type;location;lat;lon;timestamp;P1;durP1;ratioP1;P2;durP2;ratioP2
75684;SDS011;64298;46.050;38.164;2022-12-18T00:02:06;11.20;;;4.50;;
75684;SDS011;64298;46.050;38.164;2022-12-18T00:04:32;7.30;;;4.10;;
75684;SDS011;64298;46.050;38.164;2022-12-18T00:06:58;10.27;;;4.38;;
75684;SDS011;64298;46.050;38.164;2022-12-18T00:09:23;9.23;;;4.47;;
75684;SDS011;64298;46.050;38.164;2022-12-18T00:11:49;8.40;;;4.20;;
75684;SDS011;64298;46.050;38.164;2022-12-18T00:14:16;9.90;;;5.50;;
75684;SDS011;64298;46.050;38.164;2022-12-18T00:16:45;9.02;;;4.45;;
75684;SDS011;64298;46.050;38.164;2022-12-18T00:19:12;10.45;;;4.57;;
75684;SDS011;64298;46.050;38.164;2022-12-18T00:21:39;8.00;;;4.35;;
75684;SDS011;64298;46.050;38.164;2022-12-18T00:24:05;8.80;;;4.35;;
75684;SDS011;64298;46.050;38.164;2022-12-18T00:26:32;10.73;;;4.32;;
75684;SDS011;64298;46.050;38.164;2022-12-18T00:29:01;10.48;;;4.38;;
75684;SDS011;64298;46.050;38.164;2022-12-18T00:31:30;9.55;;;4.35;;
75684;SDS011;64298;46.050;38.164;2022-12-18T00:33:56;9.95;;;4.60;;
75684;SDS011;64298;46.050;38.164;2022-12-18T00:36:24;7.30;;;3.17;;
75684;SDS011;64298;46.050;38.164;2022-12-18T00:38:52;13.23;;;4.00;;
75684;SDS011;64298;46.050;38.164;2022-12-18T00:41:19;9.48;;;4.13;;
75684;SDS011;64298;46.050;38.164;2022-12-18T00:44:04;9.80;;;5.03;;
75684;SDS011;64298;46.050;38.164;2022-12-18T00:46:31;8.18;;;4.70;;
75684;SDS011;64298;46.050;38.164;2022-12-18T00:48:58;8.45;;;4.15;;
75684;SDS011;64298;46.050;38.164;2022-12-18T00:51:24;8.73;;;4.40;;
75684;SDS011;64298;46.050;38.164;2022-12-18T00:53:50;8.02;;;4.10;;
75684;SDS011;64298;46.050;38.164;2022-12-18T00:56:16;8.93;;;4.43;;
75684;SDS011;64298;46.050;38.164;2022-12-18T00:59:00;7.88;;;4.10;;
75684;SDS011;64298;46.050;38.164;2022-12-18T01:01:26;8.30;;;4.22;;
75684;SDS011;64298;46.050;38.164;2022-12-18T01:03:52;8.05;;;4.43;;
75684;SDS011;64298;46.050;38.164;2022-12-18T01:06:19;8.20;;;3.67;;
75684;SDS011;64298;46.050;38.164;2022-12-18T01:08:46;9.63;;;4.13;;
75684;SDS011;64298;46.050;38.164;2022-12-18T01:11:14;8.55;;;4.68;;
75684;SDS011;64298;46.050;38.164;2022-12-18T01:13:42;10.40;;;4.82;;
75684;SDS011;64298;46.050;38.164;2022-12-18T01:16:08;7.82;;;3.90;;
75684;SDS011;64298;46.050;38.164;2022-12-18T01:18:36;7.10;;;3.95;;
75684;SDS011;64298;46.050;38.164;2022-12-18T01:21:06;12.13;;;4.72;;
75684;SDS011;64298;46.050;38.164;2022-12-18T01:23:35;9.52;;;4.28;;
75684;SDS011;64298;46.050;38.164;2022-12-18T01:26:08;8.38;;;4.63;;
75684;SDS011;64298;46.050;38.164;2022-12-18T01:28:42;10.35;;;4.15;;
75684;SDS011;64298;46.050;38.164;2022-12-18T01:31:11;11.25;;;4.82;;
75684;SDS011;64298;46.050;38.164;2022-12-18T01:33:46;8.13;;;3.88;;
75684;SDS011;64298;46.050;38.164;2022-12-18T01:36:16;7.35;;;3.88;;
75684;SDS011;64298;46.050;38.164;2022-12-18T01:38:43;8.50;;;4.38;;
75684;SDS011;64298;46.050;38.164;2022-12-18T01:41:10;10.95;;;4.55;;
75684;SDS011;64298;46.050;38.164;2022-12-18T01:46:14;9.15;;;4.35;;
75684;SDS011;64298;46.050;38.164;2022-12-18T01:48:41;8.13;;;4.35;;
75684;SDS011;64298;46.050;38.164;2022-12-18T01:51:10;11.10;;;3.95;;
75684;SDS011;64298;46.050;38.164;2022-12-18T01:53:37;8.48;;;4.18;;
75684;SDS011;64298;46.050;38.164;2022-12-18T01:56:06;8.90;;;4.50;;
75684;SDS011;64298;46.050;38.164;2022-12-18T01:58:35;11.30;;;4.43;;
75684;SDS011;64298;46.050;38.164;2022-12-18T02:01:09;6.93;;;3.95;;
75684;SDS011;64298;46.050;38.164;2022-12-18T02:03:35;10.35;;;4.35;;
75684;SDS011;64298;46.050;38.164;2022-12-18T02:06:10;10.82;;;4.30;;
75684;SDS011;64298;46.050;38.164;2022-12-18T02:08:53;7.07;;;4.63;;
75684;SDS011;64298;46.050;38.164;2022-12-18T02:17:05;8.63;;;4.18;;
75684;SDS011;64298;46.050;38.164;2022-12-18T02:22:58;7.25;;;3.90;;
75684;SDS011;64298;46.050;38.164;2022-12-18T02:28:30;10.40;;;3.92;;
75684;SDS011;64298;46.050;38.164;2022-12-18T02:31:04;8.15;;;4.03;;
75684;SDS011;64298;46.050;38.164;2022-12-18T02:33:52;7.75;;;5.13;;
75684;SDS011;64298;46.050;38.164;2022-12-18T02:36:21;7.95;;;4.95;;
75684;SDS011;64298;46.050;38.164;2022-12-18T02:38:49;10.48;;;4.00;;
75684;SDS011;64298;46.050;38.164;2022-12-18T02:41:17;7.25;;;3.50;;
75684;SDS011;64298;46.050;38.164;2022-12-18T02:43:48;5.93;;;2.72;;
75684;SDS011;64298;46.050;38.164;2022-12-18T02:49:10;6.70;;;3.60;;
75684;SDS011;64298;46.050;38.164;2022-12-18T02:51:46;7.40;;;2.83;;
75684;SDS011;64298;46.050;38.164;2022-12-18T02:57:23;5.63;;;2.40;;
75684;SDS011;64298;46.050;38.164;2022-12-18T03:00:04;7.15;;;2.55;;
75684;SDS011;64298;46.050;38.164;2022-12-18T03:02:45;5.55;;;2.40;;
75684;SDS011;64298;46.050;38.164;2022-12-18T03:05:38;6.07;;;2.97;;
75684;SDS011;64298;46.050;38.164;2022-12-18T03:08:18;5.90;;;2.92;;
75684;SDS011;64298;46.050;38.164;2022-12-18T03:10:56;5.97;;;2.33;;
75684;SDS011;64298;46.050;38.164;2022-12-18T03:13:28;5.72;;;2.50;;
75684;SDS011;64298;46.050;38.164;2022-12-18T03:16:21;7.45;;;2.83;;
75684;SDS011;64298;46.050;38.164;2022-12-18T03:18:52;4.72;;;2.03;;
75684;SDS011;64298;46.050;38.164;2022-12-18T03:21:26;7.18;;;3.03;;
75684;SDS011;64298;46.050;38.164;2022-12-18T03:23:58;5.57;;;2.58;;
75684;SDS011;64298;46.050;38.164;2022-12-18T03:26:26;5.35;;;2.35;;
75684;SDS011;64298;46.050;38.164;2022-12-18T03:29:03;5.70;;;2.08;;
75684;SDS011;64298;46.050;38.164;2022-12-18T03:31:34;5.50;;;2.53;;
75684;SDS011;64298;46.050;38.164;2022-12-18T03:34:04;5.28;;;2.97;;
75684;SDS011;64298;46.050;38.164;2022-12-18T03:36:40;5.97;;;2.35;;
75684;SDS011;64298;46.050;38.164;2022-12-18T03:39:06;5.00;;;3.00;;
75684;SDS011;64298;46.050;38.164;2022-12-18T03:41:46;6.32;;;2.28;;
75684;SDS011;64298;46.050;38.164;2022-12-18T03:47:27;5.50;;;2.05;;
75684;SDS011;64298;46.050;38.164;2022-12-18T03:49:59;4.03;;;2.15;;
75684;SDS011;64298;46.050;38.164;2022-12-18T03:55:16;4.72;;;1.95;;
75684;SDS011;64298;46.050;38.164;2022-12-18T03:57:46;5.45;;;2.15;;
75684;SDS011;64298;46.050;38.164;2022-12-18T04:00:15;5.45;;;3.33;;
75684;SDS011;64298;46.050;38.164;2022-12-18T04:03:01;5.70;;;2.20;;
75684;SDS011;64298;46.050;38.164;2022-12-18T04:05:37;4.47;;;2.05;;
75684;SDS011;64298;46.050;38.164;2022-12-18T04:08:05;4.95;;;2.05;;
75684;SDS011;64298;46.050;38.164;2022-12-18T04:10:35;3.58;;;1.48;;
75684;SDS011;64298;46.050;38.164;2022-12-18T04:13:02;4.82;;;1.75;;
75684;SDS011;64298;46.050;38.164;2022-12-18T04:15:28;3.72;;;2.08;;
75684;SDS011;64298;46.050;38.164;2022-12-18T04:17:56;6.78;;;3.65;;
75684;SDS011;64298;46.050;38.164;2022-12-18T04:20:24;4.10;;;2.10;;
75684;SDS011;64298;46.050;38.164;2022-12-18T04:22:52;4.45;;;2.40;;
75684;SDS011;64298;46.050;38.164;2022-12-18T04:25:19;7.05;;;2.95;;
75684;SDS011;64298;46.050;38.164;2022-12-18T04:28:04;5.63;;;2.85;;
75684;SDS011;64298;46.050;38.164;2022-12-18T04:30:31;6.05;;;3.00;;
75684;SDS011;64298;46.050;38.164;2022-12-18T04:32:58;4.57;;;2.20;;
75684;SDS011;64298;46.050;38.164;2022-12-18T04:35:24;5.93;;;4.03;;
75684;SDS011;64298;46.050;38.164;2022-12-18T04:37:50;5.38;;;2.25;;
75684;SDS011;64298;46.050;38.164;2022-12-18T04:40:17;5.53;;;2.38;;
75684;SDS011;64298;46.050;38.164;2022-12-18T04:42:45;6.60;;;2.85;;
75684;SDS011;64298;46.050;38.164;2022-12-18T04:45:11;5.55;;;2.58;;
75684;SDS011;64298;46.050;38.164;2022-12-18T04:47:37;6.03;;;2.13;;
75684;SDS011;64298;46.050;38.164;2022-12-18T04:50:22;5.82;;;2.42;;
75684;SDS011;64298;46.050;38.164;2022-12-18T04:52:47;5.43;;;2.67;;
75684;SDS011;64298;46.050;38.164;2022-12-18T04:55:13;4.70;;;2.30;;
75684;SDS011;64298;46.050;38.164;2022-12-18T04:57:40;6.85;;;5.15;;
75684;SDS011;64298;46.050;38.164;2022-12-18T05:00:06;5.53;;;2.60;;
75684;SDS011;64298;46.050;38.164;2022-12-18T05:02:32;7.78;;;2.58;;
75684;SDS011;64298;46.050;38.164;2022-12-18T05:04:58;4.95;;;2.45;;
75684;SDS011;64298;46.050;38.164;2022-12-18T05:07:24;6.13;;;2.75;;
75684;SDS011;64298;46.050;38.164;2022-12-18T05:09:50;4.70;;;2.38;;
75684;SDS011;64298;46.050;38.164;2022-12-18T05:12:16;3.83;;;1.77;;
75684;SDS011;64298;46.050;38.164;2022-12-18T05:14:42;4.70;;;2.33;;
75684;SDS011;64298;46.050;38.164;2022-12-18T05:17:26;5.72;;;3.10;;
75684;SDS011;64298;46.050;38.164;2022-12-18T05:19:52;4.88;;;2.42;;
75684;SDS011;64298;46.050;38.164;2022-12-18T05:22:18;7.53;;;3.83;;
75684;SDS011;64298;46.050;38.164;2022-12-18T05:24:44;5.50;;;2.30;;
75684;SDS011;64298;46.050;38.164;2022-12-18T05:27:10;8.02;;;2.75;;
75684;SDS011;64298;46.050;38.164;2022-12-18T05:29:36;7.07;;;3.05;;
75684;SDS011;64298;46.050;38.164;2022-12-18T05:32:02;7.45;;;2.85;;
75684;SDS011;64298;46.050;38.164;2022-12-18T05:34:28;4.72;;;2.47;;
75684;SDS011;64298;46.050;38.164;2022-12-18T05:36:54;7.43;;;3.45;;
75684;SDS011;64298;46.050;38.164;2022-12-18T05:39:20;4.57;;;2.85;;
75684;SDS011;64298;46.050;38.164;2022-12-18T05:41:46;3.92;;;1.77;;
75684;SDS011;64298;46.050;38.164;2022-12-18T05:44:12;6.10;;;2.63;;
75684;SDS011;64298;46.050;38.164;2022-12-18T05:46:41;6.00;;;2.53;;
75684;SDS011;64298;46.050;38.164;2022-12-18T05:49:07;4.38;;;2.03;;
75684;SDS011;64298;46.050;38.164;2022-12-18T05:51:32;5.88;;;2.40;;
75684;SDS011;64298;46.050;38.164;2022-12-18T05:53:58;6.03;;;2.25;;
75684;SDS011;64298;46.050;38.164;2022-12-18T05:56:24;5.07;;;2.15;;
75684;SDS011;64298;46.050;38.164;2022-12-18T05:58:51;7.88;;;2.85;;
75684;SDS011;64298;46.050;38.164;2022-12-18T06:01:23;5.88;;;2.30;;
75684;SDS011;64298;46.050;38.164;2022-12-18T06:03:51;5.75;;;2.50;;
75684;SDS011;64298;46.050;38.164;2022-12-18T06:06:18;5.95;;;3.35;;
75684;SDS011;64298;46.050;38.164;2022-12-18T06:08:47;5.35;;;2.50;;
75684;SDS011;64298;46.050;38.164;2022-12-18T06:11:16;5.75;;;2.95;;
75684;SDS011;64298;46.050;38.164;2022-12-18T06:14:02;7.22;;;2.67;;
75684;SDS011;64298;46.050;38.164;2022-12-18T06:16:30;6.32;;;2.78;;
75684;SDS011;64298;46.050;38.164;2022-12-18T06:19:00;5.13;;;2.28;;
75684;SDS011;64298;46.050;38.164;2022-12-18T06:21:28;8.63;;;2.72;;
75684;SDS011;64298;46.050;38.164;2022-12-18T06:23:54;8.95;;;3.20;;
75684;SDS011;64298;46.050;38.164;2022-12-18T06:26:20;6.43;;;2.30;;
75684;SDS011;64298;46.050;38.164;2022-12-18T06:28:46;16.48;;;4.10;;
75684;SDS011;64298;46.050;38.164;2022-12-18T06:31:12;10.15;;;2.83;;
75684;SDS011;64298;46.050;38.164;2022-12-18T06:33:38;10.73;;;3.63;;
75684;SDS011;64298;46.050;38.164;2022-12-18T06:36:09;8.23;;;3.67;;
75684;SDS011;64298;46.050;38.164;2022-12-18T06:38:37;8.25;;;2.63;;
75684;SDS011;64298;46.050;38.164;2022-12-18T06:43:37;7.90;;;2.63;;
75684;SDS011;64298;46.050;38.164;2022-12-18T06:46:03;9.60;;;3.35;;
75684;SDS011;64298;46.050;38.164;2022-12-18T06:48:30;12.88;;;3.53;;
75684;SDS011;64298;46.050;38.164;2022-12-18T06:50:57;10.07;;;3.00;;
75684;SDS011;64298;46.050;38.164;2022-12-18T06:53:23;8.27;;;2.67;;
75684;SDS011;64298;46.050;38.164;2022-12-18T06:55:49;9.02;;;3.70;;
75684;SDS011;64298;46.050;38.164;2022-12-18T06:58:15;9.43;;;3.47;;
75684;SDS011;64298;46.050;38.164;2022-12-18T07:00:41;7.13;;;3.05;;
75684;SDS011;64298;46.050;38.164;2022-12-18T07:03:07;9.88;;;3.67;;
75684;SDS011;64298;46.050;38.164;2022-12-18T07:05:33;11.00;;;3.90;;
75684;SDS011;64298;46.050;38.164;2022-12-18T07:07:59;10.55;;;3.53;;
75684;SDS011;64298;46.050;38.164;2022-12-18T07:10:25;19.98;;;4.40;;
75684;SDS011;64298;46.050;38.164;2022-12-18T07:12:51;10.07;;;5.78;;
75684;SDS011;64298;46.050;38.164;2022-12-18T07:15:17;13.73;;;4.00;;
75684;SDS011;64298;46.050;38.164;2022-12-18T07:17:43;13.00;;;3.90;;
75684;SDS011;64298;46.050;38.164;2022-12-18T07:20:09;15.45;;;4.07;;
75684;SDS011;64298;46.050;38.164;2022-12-18T07:22:35;10.50;;;3.83;;
75684;SDS011;64298;46.050;38.164;2022-12-18T07:25:01;13.70;;;4.07;;
75684;SDS011;64298;46.050;38.164;2022-12-18T07:27:27;15.15;;;4.95;;
75684;SDS011;64298;46.050;38.164;2022-12-18T07:29:53;6.32;;;3.00;;
75684;SDS011;64298;46.050;38.164;2022-12-18T07:32:20;9.38;;;3.97;;
75684;SDS011;64298;46.050;38.164;2022-12-18T07:34:46;13.30;;;5.30;;
75684;SDS011;64298;46.050;38.164;2022-12-18T07:37:12;11.30;;;3.72;;
75684;SDS011;64298;46.050;38.164;2022-12-18T07:39:38;13.43;;;4.47;;
75684;SDS011;64298;46.050;38.164;2022-12-18T07:42:04;12.30;;;4.35;;
75684;SDS011;64298;46.050;38.164;2022-12-18T07:44:48;12.43;;;5.63;;
75684;SDS011;64298;46.050;38.164;2022-12-18T07:47:14;15.88;;;4.72;;
75684;SDS011;64298;46.050;38.164;2022-12-18T07:49:58;16.38;;;4.82;;
75684;SDS011;64298;46.050;38.164;2022-12-18T07:52:24;14.85;;;5.85;;
75684;SDS011;64298;46.050;38.164;2022-12-18T07:54:50;17.27;;;6.53;;
75684;SDS011;64298;46.050;38.164;2022-12-18T07:57:16;20.15;;;7.25;;
75684;SDS011;64298;46.050;38.164;2022-12-18T07:59:43;29.30;;;7.65;;
75684;SDS011;64298;46.050;38.164;2022-12-18T08:02:09;21.35;;;7.10;;
75684;SDS011;64298;46.050;38.164;2022-12-18T08:04:35;20.95;;;5.50;;
75684;SDS011;64298;46.050;38.164;2022-12-18T08:07:01;19.40;;;7.22;;
75684;SDS011;64298;46.050;38.164;2022-12-18T08:09:27;22.80;;;6.20;;
75684;SDS011;64298;46.050;38.164;2022-12-18T08:11:53;15.20;;;6.18;;
75684;SDS011;64298;46.050;38.164;2022-12-18T08:14:19;19.20;;;6.20;;
75684;SDS011;64298;46.050;38.164;2022-12-18T08:16:45;23.85;;;7.75;;
75684;SDS011;64298;46.050;38.164;2022-12-18T08:19:11;28.08;;;7.22;;
75684;SDS011;64298;46.050;38.164;2022-12-18T08:21:37;31.65;;;8.00;;
75684;SDS011;64298;46.050;38.164;2022-12-18T08:24:03;25.92;;;7.70;;
75684;SDS011;64298;46.050;38.164;2022-12-18T08:26:30;23.67;;;7.85;;
75684;SDS011;64298;46.050;38.164;2022-12-18T08:28:57;20.40;;;8.80;;
75684;SDS011;64298;46.050;38.164;2022-12-18T08:31:25;26.77;;;8.10;;
75684;SDS011;64298;46.050;38.164;2022-12-18T08:33:52;27.38;;;8.70;;
75684;SDS011;64298;46.050;38.164;2022-12-18T08:36:19;22.88;;;9.23;;
75684;SDS011;64298;46.050;38.164;2022-12-18T08:38:46;27.40;;;8.70;;
75684;SDS011;64298;46.050;38.164;2022-12-18T08:41:13;33.03;;;9.30;;
75684;SDS011;64298;46.050;38.164;2022-12-18T08:43:40;22.48;;;8.18;;
75684;SDS011;64298;46.050;38.164;2022-12-18T08:46:26;16.85;;;6.45;;
75684;SDS011;64298;46.050;38.164;2022-12-18T08:48:56;14.95;;;6.53;;
75684;SDS011;64298;46.050;38.164;2022-12-18T08:51:22;12.98;;;6.63;;
75684;SDS011;64298;46.050;38.164;2022-12-18T08:53:48;10.70;;;5.25;;
75684;SDS011;64298;46.050;38.164;2022-12-18T08:56:14;10.80;;;5.28;;
75684;SDS011;64298;46.050;38.164;2022-12-18T08:58:41;12.75;;;7.18;;
75684;SDS011;64298;46.050;38.164;2022-12-18T09:01:08;13.02;;;6.90;;
75684;SDS011;64298;46.050;38.164;2022-12-18T09:03:35;16.05;;;7.40;;
75684;SDS011;64298;46.050;38.164;2022-12-18T09:06:01;12.45;;;6.43;;
75684;SDS011;64298;46.050;38.164;2022-12-18T09:08:27;11.27;;;7.07;;
75684;SDS011;64298;46.050;38.164;2022-12-18T09:10:53;14.93;;;7.90;;
75684;SDS011;64298;46.050;38.164;2022-12-18T09:13:20;12.50;;;7.60;;
75684;SDS011;64298;46.050;38.164;2022-12-18T09:15:51;15.02;;;8.18;;
75684;SDS011;64298;46.050;38.164;2022-12-18T09:18:19;12.25;;;7.22;;
75684;SDS011;64298;46.050;38.164;2022-12-18T09:20:46;13.85;;;7.72;;
75684;SDS011;64298;46.050;38.164;2022-12-18T09:23:13;13.77;;;7.00;;
75684;SDS011;64298;46.050;38.164;2022-12-18T09:25:39;13.55;;;7.70;;
75684;SDS011;64298;46.050;38.164;2022-12-18T09:28:09;11.77;;;6.57;;
75684;SDS011;64298;46.050;38.164;2022-12-18T09:30:39;17.58;;;9.57;;
75684;SDS011;64298;46.050;38.164;2022-12-18T09:33:07;21.48;;;8.45;;
75684;SDS011;64298;46.050;38.164;2022-12-18T09:35:37;22.20;;;7.88;;
75684;SDS011;64298;46.050;38.164;2022-12-18T09:38:04;17.58;;;7.82;;
75684;SDS011;64298;46.050;38.164;2022-12-18T09:40:34;20.50;;;8.95;;
75684;SDS011;64298;46.050;38.164;2022-12-18T09:43:29;23.85;;;7.90;;
75684;SDS011;64298;46.050;38.164;2022-12-18T09:46:03;22.23;;;7.28;;
75684;SDS011;64298;46.050;38.164;2022-12-18T09:48:34;38.72;;;8.50;;
75684;SDS011;64298;46.050;38.164;2022-12-18T09:51:05;89.30;;;9.68;;
75684;SDS011;64298;46.050;38.164;2022-12-18T09:53:46;42.30;;;8.30;;
75684;SDS011;64298;46.050;38.164;2022-12-18T09:56:18;19.30;;;7.70;;
75684;SDS011;64298;46.050;38.164;2022-12-18T10:01:23;23.52;;;5.13;;
75684;SDS011;64298;46.050;38.164;2022-12-18T10:03:50;107.20;;;9.20;;
75684;SDS011;64298;46.050;38.164;2022-12-18T10:06:33;161.30;;;10.55;;
75684;SDS011;64298;46.050;38.164;2022-12-18T10:14:23;21.35;;;7.18;;
75684;SDS011;64298;46.050;38.164;2022-12-18T10:17:00;27.15;;;8.93;;
75684;SDS011;64298;46.050;38.164;2022-12-18T10:20:10;31.48;;;8.25;;
75684;SDS011;64298;46.050;38.164;2022-12-18T10:27:57;24.70;;;7.78;;
75684;SDS011;64298;46.050;38.164;2022-12-18T10:30:26;34.10;;;7.82;;
75684;SDS011;64298;46.050;38.164;2022-12-18T10:33:21;30.80;;;8.80;;
75684;SDS011;64298;46.050;38.164;2022-12-18T10:35:51;17.38;;;7.53;;
75684;SDS011;64298;46.050;38.164;2022-12-18T10:40:48;14.32;;;6.38;;
75684;SDS011;64298;46.050;38.164;2022-12-18T10:43:25;21.98;;;8.75;;
75684;SDS011;64298;46.050;38.164;2022-12-18T10:48:47;16.77;;;8.05;;
75684;SDS011;64298;46.050;38.164;2022-12-18T10:53:59;17.48;;;7.93;;
75684;SDS011;64298;46.050;38.164;2022-12-18T10:56:28;15.45;;;6.43;;
75684;SDS011;64298;46.050;38.164;2022-12-18T10:58:59;16.40;;;7.70;;
75684;SDS011;64298;46.050;38.164;2022-12-18T11:04:32;18.70;;;7.88;;
75684;SDS011;64298;46.050;38.164;2022-12-18T11:07:05;16.15;;;7.93;;
75684;SDS011;64298;46.050;38.164;2022-12-18T11:09:34;15.57;;;7.47;;
75684;SDS011;64298;46.050;38.164;2022-12-18T11:12:03;20.08;;;9.27;;
75684;SDS011;64298;46.050;38.164;2022-12-18T11:14:44;19.90;;;8.93;;
75684;SDS011;64298;46.050;38.164;2022-12-18T11:17:20;22.30;;;8.02;;
75684;SDS011;64298;46.050;38.164;2022-12-18T11:19:54;24.25;;;10.10;;
75684;SDS011;64298;46.050;38.164;2022-12-18T11:22:28;20.40;;;9.63;;
75684;SDS011;64298;46.050;38.164;2022-12-18T11:25:04;20.55;;;8.60;;
75684;SDS011;64298;46.050;38.164;2022-12-18T11:27:47;21.90;;;10.65;;
75684;SDS011;64298;46.050;38.164;2022-12-18T11:30:23;23.40;;;9.70;;
75684;SDS011;64298;46.050;38.164;2022-12-18T11:33:31;19.92;;;8.43;;
75684;SDS011;64298;46.050;38.164;2022-12-18T11:35:49;16.63;;;7.93;;
75684;SDS011;64298;46.050;38.164;2022-12-18T11:38:25;17.13;;;6.75;;
75684;SDS011;64298;46.050;38.164;2022-12-18T11:46:01;19.77;;;6.45;;
75684;SDS011;64298;46.050;38.164;2022-12-18T11:51:49;17.17;;;6.47;;
75684;SDS011;64298;46.050;38.164;2022-12-18T11:56:51;16.23;;;6.90;;
75684;SDS011;64298;46.050;38.164;2022-12-18T12:05:41;15.77;;;5.57;;
75684;SDS011;64298;46.050;38.164;2022-12-18T12:08:08;18.40;;;6.05;;
75684;SDS011;64298;46.050;38.164;2022-12-18T12:13:40;12.40;;;4.28;;
75684;SDS011;64298;46.050;38.164;2022-12-18T12:16:20;16.15;;;4.72;;
75684;SDS011;64298;46.050;38.164;2022-12-18T12:21:41;13.48;;;4.68;;
75684;SDS011;64298;46.050;38.164;2022-12-18T12:29:58;10.77;;;4.78;;
75684;SDS011;64298;46.050;38.164;2022-12-18T12:37:55;11.48;;;5.25;;
75684;SDS011;64298;46.050;38.164;2022-12-18T12:40:29;13.15;;;5.38;;
75684;SDS011;64298;46.050;38.164;2022-12-18T12:43:05;18.27;;;4.15;;
75684;SDS011;64298;46.050;38.164;2022-12-18T12:46:06;15.25;;;4.95;;
75684;SDS011;64298;46.050;38.164;2022-12-18T12:48:37;14.77;;;6.47;;
75684;SDS011;64298;46.050;38.164;2022-12-18T12:51:18;16.17;;;5.32;;
75684;SDS011;64298;46.050;38.164;2022-12-18T12:53:45;19.48;;;5.82;;
75684;SDS011;64298;46.050;38.164;2022-12-18T12:56:13;17.92;;;6.28;;
75684;SDS011;64298;46.050;38.164;2022-12-18T12:59:12;15.63;;;7.03;;
75684;SDS011;64298;46.050;38.164;2022-12-18T13:04:40;18.50;;;5.68;;
75684;SDS011;64298;46.050;38.164;2022-12-18T13:07:14;12.63;;;5.47;;
75684;SDS011;64298;46.050;38.164;2022-12-18T13:10:24;14.63;;;4.38;;
75684;SDS011;64298;46.050;38.164;2022-12-18T13:12:58;10.85;;;4.63;;
75684;SDS011;64298;46.050;38.164;2022-12-18T13:15:30;9.27;;;4.63;;
75684;SDS011;64298;46.050;38.164;2022-12-18T13:20:35;10.70;;;3.55;;
75684;SDS011;64298;46.050;38.164;2022-12-18T13:25:48;10.40;;;3.72;;
75684;SDS011;64298;46.050;38.164;2022-12-18T13:31:10;12.02;;;4.40;;
75684;SDS011;64298;46.050;38.164;2022-12-18T13:33:40;8.65;;;3.80;;
75684;SDS011;64298;46.050;38.164;2022-12-18T13:36:25;7.75;;;2.83;;
75684;SDS011;64298;46.050;38.164;2022-12-18T13:44:37;14.45;;;3.75;;
75684;SDS011;64298;46.050;38.164;2022-12-18T13:47:19;5.55;;;3.33;;
75684;SDS011;64298;46.050;38.164;2022-12-18T13:49:57;8.30;;;2.60;;
75684;SDS011;64298;46.050;38.164;2022-12-18T13:52:25;11.02;;;5.32;;
75684;SDS011;64298;46.050;38.164;2022-12-18T13:54:54;9.48;;;4.00;;
75684;SDS011;64298;46.050;38.164;2022-12-18T13:57:30;8.10;;;4.20;;
75684;SDS011;64298;46.050;38.164;2022-12-18T14:02:55;12.45;;;4.80;;
75684;SDS011;64298;46.050;38.164;2022-12-18T14:07:52;11.50;;;4.35;;
75684;SDS011;64298;46.050;38.164;2022-12-18T14:10:19;7.20;;;4.03;;
75684;SDS011;64298;46.050;38.164;2022-12-18T14:12:48;11.57;;;7.15;;
75684;SDS011;64298;46.050;38.164;2022-12-18T14:18:16;7.53;;;3.45;;
75684;SDS011;64298;46.050;38.164;2022-12-18T14:20:59;7.10;;;3.80;;
75684;SDS011;64298;46.050;38.164;2022-12-18T14:23:34;9.77;;;4.47;;
75684;SDS011;64298;46.050;38.164;2022-12-18T14:28:58;8.80;;;4.63;;
75684;SDS011;64298;46.050;38.164;2022-12-18T14:31:29;13.27;;;5.10;;
75684;SDS011;64298;46.050;38.164;2022-12-18T14:33:57;11.88;;;5.05;;
75684;SDS011;64298;46.050;38.164;2022-12-18T14:36:24;7.65;;;4.78;;
75684;SDS011;64298;46.050;38.164;2022-12-18T14:38:56;12.88;;;5.00;;
75684;SDS011;64298;46.050;38.164;2022-12-18T14:41:23;12.60;;;6.07;;
75684;SDS011;64298;46.050;38.164;2022-12-18T14:43:51;10.27;;;4.57;;
75684;SDS011;64298;46.050;38.164;2022-12-18T14:48:58;12.20;;;7.15;;
75684;SDS011;64298;46.050;38.164;2022-12-18T14:51:30;14.88;;;5.93;;
75684;SDS011;64298;46.050;38.164;2022-12-18T14:53:59;16.77;;;6.30;;
75684;SDS011;64298;46.050;38.164;2022-12-18T14:56:34;13.90;;;6.28;;
75684;SDS011;64298;46.050;38.164;2022-12-18T14:59:06;15.00;;;7.97;;
75684;SDS011;64298;46.050;38.164;2022-12-18T15:04:45;11.00;;;5.57;;
75684;SDS011;64298;46.050;38.164;2022-12-18T15:07:13;16.92;;;5.95;;
75684;SDS011;64298;46.050;38.164;2022-12-18T15:10:12;8.90;;;4.38;;
75684;SDS011;64298;46.050;38.164;2022-12-18T15:12:50;8.35;;;4.28;;
75684;SDS011;64298;46.050;38.164;2022-12-18T15:20:45;9.00;;;3.33;;
75684;SDS011;64298;46.050;38.164;2022-12-18T15:23:21;9.30;;;4.63;;
75684;SDS011;64298;46.050;38.164;2022-12-18T15:25:55;8.40;;;3.75;;
75684;SDS011;64298;46.050;38.164;2022-12-18T15:31:33;14.98;;;7.07;;
75684;SDS011;64298;46.050;38.164;2022-12-18T15:34:05;11.70;;;4.90;;
75684;SDS011;64298;46.050;38.164;2022-12-18T15:36:39;6.05;;;2.50;;
75684;SDS011;64298;46.050;38.164;2022-12-18T15:39:05;10.38;;;4.18;;
75684;SDS011;64298;46.050;38.164;2022-12-18T15:41:32;8.63;;;4.30;;
75684;SDS011;64298;46.050;38.164;2022-12-18T15:43:59;7.95;;;4.03;;
75684;SDS011;64298;46.050;38.164;2022-12-18T15:46:25;8.05;;;2.90;;
75684;SDS011;64298;46.050;38.164;2022-12-18T15:48:53;9.10;;;3.95;;
75684;SDS011;64298;46.050;38.164;2022-12-18T15:54:00;11.18;;;5.07;;
75684;SDS011;64298;46.050;38.164;2022-12-18T15:56:30;6.13;;;2.90;;
75684;SDS011;64298;46.050;38.164;2022-12-18T15:59:33;5.65;;;2.88;;
75684;SDS011;64298;46.050;38.164;2022-12-18T16:02:00;5.40;;;2.85;;
75684;SDS011;64298;46.050;38.164;2022-12-18T16:04:26;6.70;;;2.33;;
75684;SDS011;64298;46.050;38.164;2022-12-18T16:06:52;3.97;;;2.17;;
75684;SDS011;64298;46.050;38.164;2022-12-18T16:09:19;6.53;;;2.17;;
75684;SDS011;64298;46.050;38.164;2022-12-18T16:11:45;4.15;;;1.73;;
75684;SDS011;64298;46.050;38.164;2022-12-18T16:14:16;4.20;;;2.08;;
75684;SDS011;64298;46.050;38.164;2022-12-18T16:16:45;4.50;;;2.92;;
75684;SDS011;64298;46.050;38.164;2022-12-18T16:19:13;4.43;;;2.80;;
75684;SDS011;64298;46.050;38.164;2022-12-18T16:21:39;3.50;;;1.75;;
75684;SDS011;64298;46.050;38.164;2022-12-18T16:24:05;4.30;;;1.65;;
75684;SDS011;64298;46.050;38.164;2022-12-18T16:26:42;4.03;;;2.13;;
75684;SDS011;64298;46.050;38.164;2022-12-18T16:29:10;3.83;;;2.60;;
75684;SDS011;64298;46.050;38.164;2022-12-18T16:31:37;4.30;;;2.40;;
75684;SDS011;64298;46.050;38.164;2022-12-18T16:34:36;3.60;;;1.83;;
75684;SDS011;64298;46.050;38.164;2022-12-18T16:36:58;3.65;;;1.60;;
75684;SDS011;64298;46.050;38.164;2022-12-18T16:39:25;2.63;;;1.52;;
75684;SDS011;64298;46.050;38.164;2022-12-18T16:41:52;6.40;;;2.65;;
75684;SDS011;64298;46.050;38.164;2022-12-18T16:44:18;2.63;;;1.02;;
75684;SDS011;64298;46.050;38.164;2022-12-18T16:46:45;4.63;;;1.92;;
75684;SDS011;64298;46.050;38.164;2022-12-18T16:49:13;4.15;;;2.03;;
75684;SDS011;64298;46.050;38.164;2022-12-18T16:51:43;4.57;;;2.58;;
75684;SDS011;64298;46.050;38.164;2022-12-18T16:54:10;3.17;;;1.80;;
75684;SDS011;64298;46.050;38.164;2022-12-18T16:56:36;7.60;;;2.38;;
75684;SDS011;64298;46.050;38.164;2022-12-18T16:59:04;3.67;;;1.80;;
75684;SDS011;64298;46.050;38.164;2022-12-18T17:01:31;4.80;;;2.50;;